Terminal Aerodrome Forecast
Issued by NWS

Home | Current Version | Previous Version | Text Only | Print | Product List | Glossary Off
Versions: 1 2 3 4 5 6 7 8 9 10 11 12 13 14 15 16

327
FTUS43 KICT 131722
TAFRSL
TAF
KRSL 131722Z 1318/1418 06007KT P6SM OVC060
     FM140500 VRB03KT P6SM OVC035
     FM140600 VRB03KT P6SM OVC030
     FM141300 02004KT P6SM OVC035=

USA.gov is the U.S. government's official web portal to all federal, state and local government web resources and services.